sensor_id;sensor_type;location;lat;lon;timestamp;pressure;altitude;pressure_sealevel;temperature;humidity
68871;BME280;55906;52.278;6.808;2024-03-08T00:00:59;101905.22;;;4.26;80.39
68871;BME280;55906;52.278;6.808;2024-03-08T00:03:25;101904.09;;;4.23;80.74
68871;BME280;55906;52.278;6.808;2024-03-08T00:05:54;101909.31;;;4.23;80.95
68871;BME280;55906;52.278;6.808;2024-03-08T00:08:21;101902.28;;;4.22;80.99
68871;BME280;55906;52.278;6.808;2024-03-08T00:10:49;101898.59;;;4.18;80.50
68871;BME280;55906;52.278;6.808;2024-03-08T00:13:16;101897.47;;;4.14;80.70
68871;BME280;55906;52.278;6.808;2024-03-08T00:15:43;101898.75;;;4.08;81.24
68871;BME280;55906;52.278;6.808;2024-03-08T00:18:10;101890.84;;;4.06;81.23
68871;BME280;55906;52.278;6.808;2024-03-08T00:20:37;101891.94;;;4.10;80.89
68871;BME280;55906;52.278;6.808;2024-03-08T00:23:03;101898.16;;;4.12;80.68
68871;BME280;55906;52.278;6.808;2024-03-08T00:25:30;101892.75;;;4.09;80.78
68871;BME280;55906;52.278;6.808;2024-03-08T00:27:58;101892.06;;;4.11;80.91
68871;BME280;55906;52.278;6.808;2024-03-08T00:30:25;101892.66;;;4.07;80.90
68871;BME280;55906;52.278;6.808;2024-03-08T00:32:52;101896.16;;;4.08;80.59
68871;BME280;55906;52.278;6.808;2024-03-08T00:35:19;101869.19;;;3.94;80.62
68871;BME280;55906;52.278;6.808;2024-03-08T00:37:46;101874.69;;;3.99;80.71
68871;BME280;55906;52.278;6.808;2024-03-08T00:40:13;101871.78;;;3.94;81.05
68871;BME280;55906;52.278;6.808;2024-03-08T00:42:40;101881.97;;;3.91;80.57
68871;BME280;55906;52.278;6.808;2024-03-08T00:45:11;101877.00;;;3.94;81.26
68871;BME280;55906;52.278;6.808;2024-03-08T00:47:38;101874.03;;;3.90;80.94
68871;BME280;55906;52.278;6.808;2024-03-08T00:50:06;101872.47;;;3.92;80.72
68871;BME280;55906;52.278;6.808;2024-03-08T00:52:33;101867.03;;;3.89;81.06
68871;BME280;55906;52.278;6.808;2024-03-08T00:55:00;101869.88;;;3.92;80.69
68871;BME280;55906;52.278;6.808;2024-03-08T00:57:27;101867.16;;;3.90;80.81
68871;BME280;55906;52.278;6.808;2024-03-08T00:59:54;101858.78;;;3.82;80.19
68871;BME280;55906;52.278;6.808;2024-03-08T01:02:23;101854.81;;;3.88;80.41
68871;BME280;55906;52.278;6.808;2024-03-08T01:04:50;101860.59;;;3.83;80.45
68871;BME280;55906;52.278;6.808;2024-03-08T01:07:17;101859.00;;;3.85;80.14
68871;BME280;55906;52.278;6.808;2024-03-08T01:09:44;101849.97;;;3.80;80.55
68871;BME280;55906;52.278;6.808;2024-03-08T01:12:11;101849.88;;;3.79;80.55
68871;BME280;55906;52.278;6.808;2024-03-08T01:14:38;101848.38;;;3.82;80.03
68871;BME280;55906;52.278;6.808;2024-03-08T01:17:05;101849.28;;;3.83;79.91
68871;BME280;55906;52.278;6.808;2024-03-08T01:19:33;101841.16;;;3.78;80.00
68871;BME280;55906;52.278;6.808;2024-03-08T01:22:00;101836.06;;;3.80;80.24
68871;BME280;55906;52.278;6.808;2024-03-08T01:24:28;101831.34;;;3.74;80.32
68871;BME280;55906;52.278;6.808;2024-03-08T01:26:55;101831.13;;;3.71;80.40
68871;BME280;55906;52.278;6.808;2024-03-08T01:29:22;101830.44;;;3.74;80.00
68871;BME280;55906;52.278;6.808;2024-03-08T01:31:49;101832.25;;;3.75;80.09
68871;BME280;55906;52.278;6.808;2024-03-08T01:34:17;101825.13;;;3.72;79.58
68871;BME280;55906;52.278;6.808;2024-03-08T01:36:46;101824.13;;;3.70;79.87
68871;BME280;55906;52.278;6.808;2024-03-08T01:39:12;101819.50;;;3.66;80.12
68871;BME280;55906;52.278;6.808;2024-03-08T01:41:39;101815.91;;;3.64;79.87
68871;BME280;55906;52.278;6.808;2024-03-08T01:44:06;101812.28;;;3.62;79.86
68871;BME280;55906;52.278;6.808;2024-03-08T01:46:34;101802.69;;;3.61;79.94
68871;BME280;55906;52.278;6.808;2024-03-08T01:49:02;101807.09;;;3.62;79.66
68871;BME280;55906;52.278;6.808;2024-03-08T01:51:29;101795.69;;;3.60;80.14
68871;BME280;55906;52.278;6.808;2024-03-08T01:53:59;101801.00;;;3.62;79.54
68871;BME280;55906;52.278;6.808;2024-03-08T01:56:28;101799.09;;;3.59;79.68
68871;BME280;55906;52.278;6.808;2024-03-08T01:58:57;101801.69;;;3.59;79.96
68871;BME280;55906;52.278;6.808;2024-03-08T02:01:24;101801.38;;;3.54;79.51
68871;BME280;55906;52.278;6.808;2024-03-08T02:03:52;101800.47;;;3.54;79.80
68871;BME280;55906;52.278;6.808;2024-03-08T02:06:19;101795.25;;;3.54;79.41
68871;BME280;55906;52.278;6.808;2024-03-08T02:08:46;101790.84;;;3.53;79.20
68871;BME280;55906;52.278;6.808;2024-03-08T02:11:14;101777.75;;;3.51;79.27
68871;BME280;55906;52.278;6.808;2024-03-08T02:13:41;101790.75;;;3.51;79.21
68871;BME280;55906;52.278;6.808;2024-03-08T02:16:08;101778.34;;;3.47;78.73
68871;BME280;55906;52.278;6.808;2024-03-08T02:18:35;101779.94;;;3.45;79.68
68871;BME280;55906;52.278;6.808;2024-03-08T02:21:06;101785.94;;;3.44;78.91
68871;BME280;55906;52.278;6.808;2024-03-08T02:23:33;101779.94;;;3.45;78.91
68871;BME280;55906;52.278;6.808;2024-03-08T02:26:00;101782.00;;;3.38;79.15
68871;BME280;55906;52.278;6.808;2024-03-08T02:28:27;101783.13;;;3.41;79.21
68871;BME280;55906;52.278;6.808;2024-03-08T02:30:54;101773.63;;;3.42;79.00
68871;BME280;55906;52.278;6.808;2024-03-08T02:33:22;101776.59;;;3.35;79.16
68871;BME280;55906;52.278;6.808;2024-03-08T02:35:49;101770.81;;;3.39;79.21
68871;BME280;55906;52.278;6.808;2024-03-08T02:38:19;101769.00;;;3.38;78.87
68871;BME280;55906;52.278;6.808;2024-03-08T02:40:47;101775.78;;;3.36;79.41
68871;BME280;55906;52.278;6.808;2024-03-08T02:43:15;101768.00;;;3.36;79.23
68871;BME280;55906;52.278;6.808;2024-03-08T02:45:43;101770.38;;;3.33;79.04
68871;BME280;55906;52.278;6.808;2024-03-08T02:48:11;101770.38;;;3.33;78.89
68871;BME280;55906;52.278;6.808;2024-03-08T02:50:38;101769.16;;;3.28;79.40
68871;BME280;55906;52.278;6.808;2024-03-08T02:53:06;101768.38;;;3.29;79.15
68871;BME280;55906;52.278;6.808;2024-03-08T02:55:34;101755.38;;;3.29;78.55
68871;BME280;55906;52.278;6.808;2024-03-08T02:58:01;101744.44;;;3.21;79.33
68871;BME280;55906;52.278;6.808;2024-03-08T03:00:28;101755.63;;;3.20;79.29
68871;BME280;55906;52.278;6.808;2024-03-08T03:02:56;101747.94;;;3.21;78.92
68871;BME280;55906;52.278;6.808;2024-03-08T03:05:23;101752.03;;;3.18;79.32
68871;BME280;55906;52.278;6.808;2024-03-08T03:07:51;101750.44;;;3.20;78.75
68871;BME280;55906;52.278;6.808;2024-03-08T03:10:18;101739.72;;;3.15;79.05
68871;BME280;55906;52.278;6.808;2024-03-08T03:12:48;101740.31;;;3.11;79.01
68871;BME280;55906;52.278;6.808;2024-03-08T03:15:15;101742.22;;;3.14;79.04
68871;BME280;55906;52.278;6.808;2024-03-08T03:17:45;101743.91;;;3.13;79.24
68871;BME280;55906;52.278;6.808;2024-03-08T03:20:13;101737.31;;;3.18;78.88
68871;BME280;55906;52.278;6.808;2024-03-08T03:22:48;101735.31;;;3.14;78.67
68871;BME280;55906;52.278;6.808;2024-03-08T03:25:17;101730.13;;;3.14;78.56
68871;BME280;55906;52.278;6.808;2024-03-08T03:27:50;101724.13;;;3.15;78.79
68871;BME280;55906;52.278;6.808;2024-03-08T03:30:17;101716.09;;;3.12;78.39
68871;BME280;55906;52.278;6.808;2024-03-08T03:32:47;101722.69;;;3.07;78.95
68871;BME280;55906;52.278;6.808;2024-03-08T03:35:16;101718.72;;;3.12;78.82
68871;BME280;55906;52.278;6.808;2024-03-08T03:37:44;101729.78;;;3.10;78.43
68871;BME280;55906;52.278;6.808;2024-03-08T03:40:26;101724.59;;;3.10;78.17
68871;BME280;55906;52.278;6.808;2024-03-08T03:42:55;101722.78;;;3.09;78.30
68871;BME280;55906;52.278;6.808;2024-03-08T03:45:21;101726.19;;;3.08;78.29
68871;BME280;55906;52.278;6.808;2024-03-08T03:47:48;101721.88;;;3.08;78.64
68871;BME280;55906;52.278;6.808;2024-03-08T03:50:15;101711.19;;;3.04;78.47
68871;BME280;55906;52.278;6.808;2024-03-08T03:52:44;101708.47;;;3.02;78.02
68871;BME280;55906;52.278;6.808;2024-03-08T03:55:12;101711.75;;;3.00;78.52
68871;BME280;55906;52.278;6.808;2024-03-08T03:57:39;101718.19;;;3.05;77.64
68871;BME280;55906;52.278;6.808;2024-03-08T04:00:08;101717.28;;;3.04;77.97
68871;BME280;55906;52.278;6.808;2024-03-08T04:02:37;101713.88;;;3.05;77.96
68871;BME280;55906;52.278;6.808;2024-03-08T04:05:04;101710.06;;;3.00;77.89
68871;BME280;55906;52.278;6.808;2024-03-08T04:07:31;101709.84;;;2.97;78.37
68871;BME280;55906;52.278;6.808;2024-03-08T04:09:58;101697.66;;;2.96;77.84
68871;BME280;55906;52.278;6.808;2024-03-08T04:12:25;101694.06;;;2.94;78.13
68871;BME280;55906;52.278;6.808;2024-03-08T04:14:54;101697.56;;;2.95;77.39
68871;BME280;55906;52.278;6.808;2024-03-08T04:17:25;101690.66;;;2.95;78.25
68871;BME280;55906;52.278;6.808;2024-03-08T04:19:53;101697.56;;;2.95;78.29
68871;BME280;55906;52.278;6.808;2024-03-08T04:22:20;101695.63;;;2.92;77.98
68871;BME280;55906;52.278;6.808;2024-03-08T04:24:46;101690.34;;;2.91;77.83
68871;BME280;55906;52.278;6.808;2024-03-08T04:27:14;101690.44;;;2.92;77.61
68871;BME280;55906;52.278;6.808;2024-03-08T04:29:41;101685.94;;;2.89;78.32
68871;BME280;55906;52.278;6.808;2024-03-08T04:32:08;101683.44;;;2.91;77.78
68871;BME280;55906;52.278;6.808;2024-03-08T04:34:37;101682.31;;;2.87;77.96
68871;BME280;55906;52.278;6.808;2024-03-08T04:37:03;101684.72;;;2.84;77.79
68871;BME280;55906;52.278;6.808;2024-03-08T04:39:30;101682.00;;;2.83;77.53
68871;BME280;55906;52.278;6.808;2024-03-08T04:41:59;101682.13;;;2.84;77.83
68871;BME280;55906;52.278;6.808;2024-03-08T04:44:28;101689.81;;;2.83;78.18
68871;BME280;55906;52.278;6.808;2024-03-08T04:46:55;101680.78;;;2.78;77.58
68871;BME280;55906;52.278;6.808;2024-03-08T04:49:22;101677.59;;;2.82;77.94
68871;BME280;55906;52.278;6.808;2024-03-08T04:51:51;101679.31;;;2.81;78.09
68871;BME280;55906;52.278;6.808;2024-03-08T04:54:17;101673.09;;;2.79;77.52
68871;BME280;55906;52.278;6.808;2024-03-08T04:56:44;101676.38;;;2.77;77.66
68871;BME280;55906;52.278;6.808;2024-03-08T04:59:11;101666.78;;;2.76;77.48
68871;BME280;55906;52.278;6.808;2024-03-08T05:01:39;101671.19;;;2.77;77.95
68871;BME280;55906;52.278;6.808;2024-03-08T05:04:05;101664.78;;;2.72;78.03
68871;BME280;55906;52.278;6.808;2024-03-08T05:06:32;101676.06;;;2.72;78.13
68871;BME280;55906;52.278;6.808;2024-03-08T05:09:00;101667.16;;;2.69;77.34
68871;BME280;55906;52.278;6.808;2024-03-08T05:11:38;101672.47;;;2.70;77.70
68871;BME280;55906;52.278;6.808;2024-03-08T05:14:05;101669.53;;;2.66;78.20
68871;BME280;55906;52.278;6.808;2024-03-08T05:16:31;101665.03;;;2.63;78.41
68871;BME280;55906;52.278;6.808;2024-03-08T05:18:58;101661.63;;;2.64;78.50
68871;BME280;55906;52.278;6.808;2024-03-08T05:21:25;101659.03;;;2.64;77.85
68871;BME280;55906;52.278;6.808;2024-03-08T05:23:52;101660.75;;;2.64;78.18
68871;BME280;55906;52.278;6.808;2024-03-08T05:26:20;101661.53;;;2.63;77.52
68871;BME280;55906;52.278;6.808;2024-03-08T05:28:47;101654.19;;;2.57;78.16
68871;BME280;55906;52.278;6.808;2024-03-08T05:31:18;101653.75;;;2.51;78.49
68871;BME280;55906;52.278;6.808;2024-03-08T05:33:46;101650.69;;;2.56;78.70
68871;BME280;55906;52.278;6.808;2024-03-08T05:36:13;101656.66;;;2.55;78.10
68871;BME280;55906;52.278;6.808;2024-03-08T05:38:40;101653.38;;;2.58;77.73
68871;BME280;55906;52.278;6.808;2024-03-08T05:41:08;101646.28;;;2.55;78.16
68871;BME280;55906;52.278;6.808;2024-03-08T05:43:37;101650.00;;;2.59;78.20
68871;BME280;55906;52.278;6.808;2024-03-08T05:46:04;101652.47;;;2.57;78.40
68871;BME280;55906;52.278;6.808;2024-03-08T05:48:31;101652.38;;;2.56;78.13
68871;BME280;55906;52.278;6.808;2024-03-08T05:50:58;101649.09;;;2.58;77.97
68871;BME280;55906;52.278;6.808;2024-03-08T05:53:27;101646.28;;;2.55;78.46
68871;BME280;55906;52.278;6.808;2024-03-08T05:55:57;101645.38;;;2.55;78.48
68871;BME280;55906;52.278;6.808;2024-03-08T05:58:24;101644.25;;;2.51;78.14
68871;BME280;55906;52.278;6.808;2024-03-08T06:00:52;101646.97;;;2.53;77.87
68871;BME280;55906;52.278;6.808;2024-03-08T06:03:19;101655.66;;;2.53;78.38
68871;BME280;55906;52.278;6.808;2024-03-08T06:05:47;101648.34;;;2.48;78.35
68871;BME280;55906;52.278;6.808;2024-03-08T06:08:14;101653.66;;;2.49;78.92
68871;BME280;55906;52.278;6.808;2024-03-08T06:10:41;101646.19;;;2.54;78.71
68871;BME280;55906;52.278;6.808;2024-03-08T06:13:08;101647.88;;;2.53;78.03
68871;BME280;55906;52.278;6.808;2024-03-08T06:15:37;101651.25;;;2.52;78.54
68871;BME280;55906;52.278;6.808;2024-03-08T06:18:06;101647.06;;;2.54;77.91
68871;BME280;55906;52.278;6.808;2024-03-08T06:20:36;101643.59;;;2.54;78.42
68871;BME280;55906;52.278;6.808;2024-03-08T06:23:03;101639.28;;;2.54;78.07
68871;BME280;55906;52.278;6.808;2024-03-08T06:25:30;101639.50;;;2.57;78.26
68871;BME280;55906;52.278;6.808;2024-03-08T06:27:56;101638.59;;;2.57;78.86
68871;BME280;55906;52.278;6.808;2024-03-08T06:30:23;101640.09;;;2.53;78.49
68871;BME280;55906;52.278;6.808;2024-03-08T06:32:50;101628.69;;;2.63;78.83
68871;BME280;55906;52.278;6.808;2024-03-08T06:35:20;101628.78;;;2.65;78.30
68871;BME280;55906;52.278;6.808;2024-03-08T06:37:47;101638.59;;;2.69;78.00
68871;BME280;55906;52.278;6.808;2024-03-08T06:40:14;101641.28;;;2.70;77.97
68871;BME280;55906;52.278;6.808;2024-03-08T06:42:40;101630.22;;;2.73;77.93
68871;BME280;55906;52.278;6.808;2024-03-08T06:45:07;101636.41;;;2.75;78.17
68871;BME280;55906;52.278;6.808;2024-03-08T06:47:35;101632.44;;;2.80;78.02
68871;BME280;55906;52.278;6.808;2024-03-08T06:50:02;101634.50;;;2.72;78.46
68871;BME280;55906;52.278;6.808;2024-03-08T06:52:30;101633.44;;;2.82;78.10
68871;BME280;55906;52.278;6.808;2024-03-08T06:54:58;101632.84;;;2.86;78.26
68871;BME280;55906;52.278;6.808;2024-03-08T06:57:27;101624.91;;;2.96;78.31
68871;BME280;55906;52.278;6.808;2024-03-08T06:59:55;101639.41;;;3.06;77.61
68871;BME280;55906;52.278;6.808;2024-03-08T07:02:22;101632.84;;;3.11;77.64
68871;BME280;55906;52.278;6.808;2024-03-08T07:04:51;101626.75;;;3.24;77.39
68871;BME280;55906;52.278;6.808;2024-03-08T07:07:18;101633.06;;;3.27;76.83
68871;BME280;55906;52.278;6.808;2024-03-08T07:09:47;101632.38;;;3.30;76.88
68871;BME280;55906;52.278;6.808;2024-03-08T07:12:15;101624.59;;;3.43;76.51
68871;BME280;55906;52.278;6.808;2024-03-08T07:14:42;101623.41;;;3.51;76.71
68871;BME280;55906;52.278;6.808;2024-03-08T07:17:11;101622.91;;;3.57;76.20
68871;BME280;55906;52.278;6.808;2024-03-08T07:19:38;101620.41;;;3.58;76.35
68871;BME280;55906;52.278;6.808;2024-03-08T07:22:05;101620.78;;;3.64;75.61
68871;BME280;55906;52.278;6.808;2024-03-08T07:24:34;101621.78;;;3.66;75.50
68871;BME280;55906;52.278;6.808;2024-03-08T07:27:17;101619.19;;;3.79;75.34
68871;BME280;55906;52.278;6.808;2024-03-08T07:29:44;101616.63;;;3.93;75.46
68871;BME280;55906;52.278;6.808;2024-03-08T07:32:11;101624.53;;;3.94;74.96
68871;BME280;55906;52.278;6.808;2024-03-08T07:34:47;101612.28;;;4.06;74.88
68871;BME280;55906;52.278;6.808;2024-03-08T07:37:14;101608.75;;;4.19;73.97
68871;BME280;55906;52.278;6.808;2024-03-08T07:39:40;101609.84;;;4.23;73.98
68871;BME280;55906;52.278;6.808;2024-03-08T07:42:07;101616.44;;;4.31;72.55
68871;BME280;55906;52.278;6.808;2024-03-08T07:44:36;101606.88;;;4.44;73.03
68871;BME280;55906;52.278;6.808;2024-03-08T07:47:03;101607.94;;;4.76;72.55
68871;BME280;55906;52.278;6.808;2024-03-08T07:49:32;101605.94;;;5.00;71.46
68871;BME280;55906;52.278;6.808;2024-03-08T07:51:59;101595.44;;;5.42;71.53
68871;BME280;55906;52.278;6.808;2024-03-08T07:54:27;101591.34;;;5.77;69.69
68871;BME280;55906;52.278;6.808;2024-03-08T07:56:53;101585.84;;;6.18;69.60
68871;BME280;55906;52.278;6.808;2024-03-08T07:59:20;101578.53;;;6.60;67.74
68871;BME280;55906;52.278;6.808;2024-03-08T08:01:49;101581.72;;;6.70;67.07
68871;BME280;55906;52.278;6.808;2024-03-08T08:04:15;101575.34;;;6.82;68.16
68871;BME280;55906;52.278;6.808;2024-03-08T08:06:43;101566.09;;;6.88;67.34
68871;BME280;55906;52.278;6.808;2024-03-08T08:09:10;101568.38;;;7.50;67.66
68871;BME280;55906;52.278;6.808;2024-03-08T08:11:40;101570.19;;;7.87;63.38
68871;BME280;55906;52.278;6.808;2024-03-08T08:14:09;101568.38;;;8.03;62.12
68871;BME280;55906;52.278;6.808;2024-03-08T08:16:36;101565.31;;;8.31;63.80
68871;BME280;55906;52.278;6.808;2024-03-08T08:19:04;101560.94;;;8.69;63.79
68871;BME280;55906;52.278;6.808;2024-03-08T08:21:33;101563.50;;;9.08;59.01
68871;BME280;55906;52.278;6.808;2024-03-08T08:24:02;101553.28;;;9.55;57.75
68871;BME280;55906;52.278;6.808;2024-03-08T08:26:29;101547.47;;;9.85;56.52
68871;BME280;55906;52.278;6.808;2024-03-08T08:28:56;101543.94;;;10.07;55.70
68871;BME280;55906;52.278;6.808;2024-03-08T08:31:23;101549.44;;;10.13;53.96
68871;BME280;55906;52.278;6.808;2024-03-08T08:33:50;101547.25;;;10.23;54.91
68871;BME280;55906;52.278;6.808;2024-03-08T08:36:22;101539.56;;;10.07;53.55
68871;BME280;55906;52.278;6.808;2024-03-08T08:38:48;101530.03;;;10.32;54.52
68871;BME280;55906;52.278;6.808;2024-03-08T08:41:15;101528.28;;;10.54;53.40
68871;BME280;55906;52.278;6.808;2024-03-08T08:43:42;101526.31;;;10.49;52.39
68871;BME280;55906;52.278;6.808;2024-03-08T08:46:10;101536.09;;;10.53;51.59
68871;BME280;55906;52.278;6.808;2024-03-08T08:48:38;101526.38;;;11.00;53.10
68871;BME280;55906;52.278;6.808;2024-03-08T08:51:06;101524.75;;;11.03;50.95
68871;BME280;55906;52.278;6.808;2024-03-08T08:53:39;101526.16;;;11.19;49.03
68871;BME280;55906;52.278;6.808;2024-03-08T08:56:08;101512.09;;;11.45;50.16
68871;BME280;55906;52.278;6.808;2024-03-08T08:58:38;101510.56;;;11.52;48.46
68871;BME280;55906;52.278;6.808;2024-03-08T09:01:05;101510.00;;;11.62;48.98
68871;BME280;55906;52.278;6.808;2024-03-08T09:03:33;101500.06;;;12.07;49.34
68871;BME280;55906;52.278;6.808;2024-03-08T09:06:00;101494.06;;;12.43;47.19
68871;BME280;55906;52.278;6.808;2024-03-08T09:08:28;101492.69;;;12.57;47.28
68871;BME280;55906;52.278;6.808;2024-03-08T09:10:58;101492.81;;;12.62;46.80
68871;BME280;55906;52.278;6.808;2024-03-08T09:13:25;101490.88;;;12.55;44.42
68871;BME280;55906;52.278;6.808;2024-03-08T09:15:52;101476.28;;;13.00;46.83
68871;BME280;55906;52.278;6.808;2024-03-08T09:18:19;101476.44;;;13.06;45.64
68871;BME280;55906;52.278;6.808;2024-03-08T09:20:46;101478.19;;;13.40;46.98
68871;BME280;55906;52.278;6.808;2024-03-08T09:23:13;101462.53;;;13.87;45.37
68871;BME280;55906;52.278;6.808;2024-03-08T09:25:42;101465.34;;;13.95;43.88
68871;BME280;55906;52.278;6.808;2024-03-08T09:28:11;101461.81;;;13.94;42.89
68871;BME280;55906;52.278;6.808;2024-03-08T09:30:38;101468.66;;;14.27;44.75
68871;BME280;55906;52.278;6.808;2024-03-08T09:33:05;101456.84;;;14.09;43.16
68871;BME280;55906;52.278;6.808;2024-03-08T09:35:31;101460.13;;;14.40;42.68
68871;BME280;55906;52.278;6.808;2024-03-08T09:37:58;101443.94;;;14.68;43.91
68871;BME280;55906;52.278;6.808;2024-03-08T09:40:25;101444.16;;;14.35;43.01
68871;BME280;55906;52.278;6.808;2024-03-08T09:42:52;101443.50;;;14.94;42.95
68871;BME280;55906;52.278;6.808;2024-03-08T09:45:22;101442.53;;;14.89;41.78
68871;BME280;55906;52.278;6.808;2024-03-08T09:47:50;101436.91;;;15.22;41.73
68871;BME280;55906;52.278;6.808;2024-03-08T09:50:18;101426.94;;;15.07;40.25
68871;BME280;55906;52.278;6.808;2024-03-08T09:52:47;101429.97;;;15.30;40.07
68871;BME280;55906;52.278;6.808;2024-03-08T09:55:15;101415.34;;;15.56;41.13
68871;BME280;55906;52.278;6.808;2024-03-08T09:57:43;101412.66;;;16.17;40.63
68871;BME280;55906;52.278;6.808;2024-03-08T10:00:34;101407.75;;;15.79;38.44
68871;BME280;55906;52.278;6.808;2024-03-08T10:03:01;101399.31;;;16.11;39.68
68871;BME280;55906;52.278;6.808;2024-03-08T10:05:28;101390.97;;;16.60;38.52
68871;BME280;55906;52.278;6.808;2024-03-08T10:07:58;101397.16;;;16.59;38.68
68871;BME280;55906;52.278;6.808;2024-03-08T10:10:25;101396.25;;;16.57;38.81
68871;BME280;55906;52.278;6.808;2024-03-08T10:12:52;101396.41;;;16.68;37.14
68871;BME280;55906;52.278;6.808;2024-03-08T10:15:19;101381.22;;;16.59;36.09
68871;BME280;55906;52.278;6.808;2024-03-08T10:17:48;101381.91;;;17.39;36.49
68871;BME280;55906;52.278;6.808;2024-03-08T10:20:15;101372.47;;;16.68;36.15
68871;BME280;55906;52.278;6.808;2024-03-08T10:22:42;101369.06;;;16.81;37.60
68871;BME280;55906;52.278;6.808;2024-03-08T10:25:10;101373.81;;;17.19;36.31
68871;BME280;55906;52.278;6.808;2024-03-08T10:27:38;101366.81;;;17.36;36.02
68871;BME280;55906;52.278;6.808;2024-03-08T10:30:10;101361.66;;;17.62;34.92
68871;BME280;55906;52.278;6.808;2024-03-08T10:32:37;101363.47;;;17.69;35.28
68871;BME280;55906;52.278;6.808;2024-03-08T10:35:08;101361.03;;;18.22;35.85
68871;BME280;55906;52.278;6.808;2024-03-08T10:37:43;101360.97;;;18.06;33.79
68871;BME280;55906;52.278;6.808;2024-03-08T10:40:16;101351.19;;;18.08;34.10
68871;BME280;55906;52.278;6.808;2024-03-08T10:42:51;101341.53;;;18.48;34.95
68871;BME280;55906;52.278;6.808;2024-03-08T10:45:25;101347.81;;;18.85;34.35
68871;BME280;55906;52.278;6.808;2024-03-08T10:48:08;101348.69;;;18.70;33.19
68871;BME280;55906;52.278;6.808;2024-03-08T10:50:38;101340.69;;;18.95;33.51
68871;BME280;55906;52.278;6.808;2024-03-08T10:53:06;101330.94;;;18.81;33.58
68871;BME280;55906;52.278;6.808;2024-03-08T10:55:37;101331.78;;;19.17;32.89
68871;BME280;55906;52.278;6.808;2024-03-08T10:58:07;101320.13;;;19.47;32.88
68871;BME280;55906;52.278;6.808;2024-03-08T11:00:34;101317.50;;;19.55;32.19
68871;BME280;55906;52.278;6.808;2024-03-08T11:03:03;101316.38;;;20.00;32.17
68871;BME280;55906;52.278;6.808;2024-03-08T11:05:38;101313.81;;;19.83;30.82
68871;BME280;55906;52.278;6.808;2024-03-08T11:08:16;101307.72;;;19.52;30.75
68871;BME280;55906;52.278;6.808;2024-03-08T11:10:48;101298.63;;;19.94;31.21
68871;BME280;55906;52.278;6.808;2024-03-08T11:13:33;101291.19;;;20.43;30.42
68871;BME280;55906;52.278;6.808;2024-03-08T11:16:01;101291.25;;;20.31;30.68
68871;BME280;55906;52.278;6.808;2024-03-08T11:18:32;101285.72;;;20.57;30.64
68871;BME280;55906;52.278;6.808;2024-03-08T11:21:04;101288.97;;;20.93;30.86
68871;BME280;55906;52.278;6.808;2024-03-08T11:23:32;101277.84;;;20.40;30.91
68871;BME280;55906;52.278;6.808;2024-03-08T11:25:59;101284.78;;;20.63;30.85
68871;BME280;55906;52.278;6.808;2024-03-08T11:28:26;101271.41;;;20.63;29.90
68871;BME280;55906;52.278;6.808;2024-03-08T11:31:24;101271.63;;;21.33;28.59
68871;BME280;55906;52.278;6.808;2024-03-08T11:33:52;101262.97;;;21.07;30.22
68871;BME280;55906;52.278;6.808;2024-03-08T11:36:22;101264.22;;;21.55;28.88
68871;BME280;55906;52.278;6.808;2024-03-08T11:38:50;101257.75;;;21.71;29.15
68871;BME280;55906;52.278;6.808;2024-03-08T11:41:19;101253.50;;;21.55;27.89
68871;BME280;55906;52.278;6.808;2024-03-08T11:43:46;101244.50;;;21.61;29.44
68871;BME280;55906;52.278;6.808;2024-03-08T11:46:14;101242.03;;;22.09;27.32
68871;BME280;55906;52.278;6.808;2024-03-08T11:48:42;101237.66;;;22.03;28.71
68871;BME280;55906;52.278;6.808;2024-03-08T11:51:11;101228.13;;;21.81;28.24
68871;BME280;55906;52.278;6.808;2024-03-08T11:53:41;101241.63;;;21.75;27.67
68871;BME280;55906;52.278;6.808;2024-03-08T11:56:08;101232.16;;;22.14;28.41
68871;BME280;55906;52.278;6.808;2024-03-08T11:58:36;101224.13;;;21.49;27.44
68871;BME280;55906;52.278;6.808;2024-03-08T12:01:04;101235.25;;;21.13;28.06
68871;BME280;55906;52.278;6.808;2024-03-08T12:03:32;101227.03;;;21.32;27.12
68871;BME280;55906;52.278;6.808;2024-03-08T12:05:59;101226.56;;;21.67;26.64
68871;BME280;55906;52.278;6.808;2024-03-08T12:08:26;101208.97;;;22.10;27.01
68871;BME280;55906;52.278;6.808;2024-03-08T12:10:56;101201.50;;;22.31;25.72
68871;BME280;55906;52.278;6.808;2024-03-08T12:13:25;101196.69;;;21.93;26.22
68871;BME280;55906;52.278;6.808;2024-03-08T12:15:56;101188.31;;;22.18;26.65
68871;BME280;55906;52.278;6.808;2024-03-08T12:18:24;101176.81;;;22.11;26.47
68871;BME280;55906;52.278;6.808;2024-03-08T12:20:51;101180.34;;;22.64;26.87
68871;BME280;55906;52.278;6.808;2024-03-08T12:23:19;101169.44;;;22.73;26.18
68871;BME280;55906;52.278;6.808;2024-03-08T12:25:46;101167.03;;;23.06;24.89
68871;BME280;55906;52.278;6.808;2024-03-08T12:28:15;101172.50;;;22.53;26.08
68871;BME280;55906;52.278;6.808;2024-03-08T12:30:47;101154.47;;;22.09;25.83
68871;BME280;55906;52.278;6.808;2024-03-08T12:33:14;101156.94;;;22.24;25.89
68871;BME280;55906;52.278;6.808;2024-03-08T12:35:50;101141.00;;;22.64;24.46
68871;BME280;55906;52.278;6.808;2024-03-08T12:38:20;101136.91;;;22.91;24.28
68871;BME280;55906;52.278;6.808;2024-03-08T12:40:50;101137.88;;;22.87;24.95
68871;BME280;55906;52.278;6.808;2024-03-08T12:43:20;101128.66;;;23.01;24.79
68871;BME280;55906;52.278;6.808;2024-03-08T12:45:47;101110.50;;;23.12;24.85
68871;BME280;55906;52.278;6.808;2024-03-08T12:48:14;101113.97;;;23.17;25.03
68871;BME280;55906;52.278;6.808;2024-03-08T12:50:41;101116.00;;;23.86;24.75
68871;BME280;55906;52.278;6.808;2024-03-08T12:53:11;101113.97;;;24.62;23.78
68871;BME280;55906;52.278;6.808;2024-03-08T12:55:38;101115.25;;;24.81;23.94
68871;BME280;55906;52.278;6.808;2024-03-08T12:58:06;101104.34;;;23.85;24.07
68871;BME280;55906;52.278;6.808;2024-03-08T13:00:35;101112.31;;;23.90;24.08
68871;BME280;55906;52.278;6.808;2024-03-08T13:03:02;101102.91;;;23.72;23.42